Time;durP1;ratioP1;P1;durP2;ratioP2;P2;SDS_P1;SDS_P2;PMS_P1;PMS_P2;Temp;Humidity;BMP_temperature;BMP_pressure;BME280_temperature;BME280_humidity;BME280_pressure;Samples;Min_cycle;Max_cycle;Signal;HPM_P1;HPM_P2
2022/03/17 00:00:33;;;;;;;53.50;31.30;;;;;;;;;;5032995;28;20208;-85
2022/03/17 00:03:01;;;;;;;54.95;31.60;;;5.70;99.90;;;;;;5036175;28;20212;-82
2022/03/17 00:05:29;;;;;;;57.35;33.08;;;5.70;99.90;;;;;;5038264;28;20193;-84
2022/03/17 00:07:56;;;;;;;58.42;32.20;;;5.70;99.90;;;;;;5033815;28;20232;-84
2022/03/17 00:10:25;;;;;;;55.33;31.23;;;;;;;;;;5034079;28;20216;-85
2022/03/17 00:12:52;;;;;;;62.88;32.30;;;;;;;;;;5033575;28;20275;-84
2022/03/17 00:15:19;;;;;;;57.97;32.75;;;;;;;;;;5031364;28;20256;-84
2022/03/17 00:17:49;;;;;;;51.95;29.85;;;5.70;99.90;;;;;;5032276;28;20196;-84
2022/03/17 00:20:16;;;;;;;55.10;31.95;;;;;;;;;;5030708;28;20180;-84
2022/03/17 00:22:50;;;;;;;56.55;33.15;;;5.90;99.90;;;;;;5030822;28;20224;-86
2022/03/17 00:25:25;;;;;;;57.92;30.58;;;6.00;99.90;;;;;;5031725;28;20240;-86
2022/03/17 00:27:56;;;;;;;60.75;33.60;;;5.70;99.90;;;;;;5032347;28;20246;-85
2022/03/17 00:30:23;;;;;;;61.67;36.05;;;;;;;;;;5030442;28;20227;-84
2022/03/17 00:32:50;;;;;;;52.50;30.48;;;5.70;99.90;;;;;;5029006;28;20232;-84
2022/03/17 00:35:38;;;;;;;52.65;32.72;;;5.50;99.90;;;;;;5034035;28;20207;-85
2022/03/17 00:38:08;;;;;;;56.90;32.03;;;5.70;99.90;;;;;;5027357;28;20201;-85
2022/03/17 00:40:36;;;;;;;56.25;30.60;;;;;;;;;;5029310;28;20207;-84
2022/03/17 00:43:03;;;;;;;51.75;32.13;;;5.80;99.90;;;;;;5035869;28;20228;-84
2022/03/17 00:45:31;;;;;;;57.95;32.78;;;5.20;99.90;;;;;;5039186;28;20247;-85
2022/03/17 00:47:58;;;;;;;58.40;32.50;;;5.70;99.90;;;;;;5038653;28;20232;-83
2022/03/17 00:50:25;;;;;;;56.85;31.08;;;5.50;99.90;;;;;;5038961;28;20196;-85
2022/03/17 00:52:52;;;;;;;55.17;30.80;;;5.60;99.90;;;;;;5038829;28;20235;-85
2022/03/17 00:55:23;;;;;;;51.60;32.67;;;5.60;99.90;;;;;;5038154;28;20196;-83
2022/03/17 00:57:50;;;;;;;56.10;32.75;;;;;;;;;;5032891;28;20204;-84
2022/03/17 01:00:20;;;;;;;60.75;32.65;;;5.60;99.90;;;;;;5025411;28;20231;-84
2022/03/17 01:02:49;;;;;;;56.40;32.05;;;5.60;99.90;;;;;;5026192;28;20259;-84
2022/03/17 01:05:17;;;;;;;55.30;31.45;;;5.60;99.90;;;;;;5026238;28;20276;-84
2022/03/17 01:07:44;;;;;;;55.60;34.97;;;;;;;;;;5028408;28;20231;-84
2022/03/17 01:10:15;;;;;;;52.15;31.50;;;5.60;99.90;;;;;;5027716;28;20224;-83
2022/03/17 01:12:46;;;;;;;64.10;34.55;;;5.60;99.90;;;;;;5027793;28;20228;-85
2022/03/17 01:15:14;;;;;;;53.28;31.55;;;5.50;99.90;;;;;;5037443;28;20224;-84
2022/03/17 01:17:41;;;;;;;53.63;31.85;;;5.60;99.90;;;;;;5038137;28;20176;-83
2022/03/17 01:20:10;;;;;;;64.15;33.30;;;5.50;99.90;;;;;;5030832;28;20263;-83
2022/03/17 01:22:36;;;;;;;56.33;32.08;;;5.50;99.90;;;;;;5029665;28;20235;-83
2022/03/17 01:25:06;;;;;;;54.38;30.65;;;5.60;99.90;;;;;;5029009;28;20220;-84
2022/03/17 01:27:34;;;;;;;56.78;35.20;;;;;;;;;;5028900;28;20248;-84
2022/03/17 01:30:07;;;;;;;56.45;33.05;;;5.50;99.90;;;;;;5027925;28;20239;-84
2022/03/17 01:32:34;;;;;;;55.60;32.13;;;5.50;99.90;;;;;;5030074;28;20234;-83
2022/03/17 01:35:01;;;;;;;62.65;35.13;;;5.50;99.90;;;;;;5029464;28;20206;-85
2022/03/17 01:37:28;;;;;;;51.22;32.40;;;5.50;99.90;;;;;;5027379;28;20200;-84
2022/03/17 01:39:54;;;;;;;55.03;33.00;;;5.50;99.90;;;;;;5029046;28;20204;-85
2022/03/17 01:42:22;;;;;;;61.22;35.67;;;5.40;99.90;;;;;;5034330;28;20250;-85
2022/03/17 01:44:49;;;;;;;61.00;34.08;;;5.40;99.90;;;;;;5029137;28;20223;-84
2022/03/17 01:47:31;;;;;;;60.08;34.75;;;5.50;99.90;;;;;;5028394;28;20648;-84
2022/03/17 01:50:00;;;;;;;63.05;34.47;;;5.40;99.90;;;;;;5027412;28;20220;-85
2022/03/17 01:52:27;;;;;;;60.85;33.67;;;5.30;99.90;;;;;;5027009;28;20212;-84
2022/03/17 01:54:54;;;;;;;58.72;34.65;;;5.40;99.90;;;;;;5027012;28;20664;-84
2022/03/17 01:57:22;;;;;;;53.47;33.33;;;5.30;99.90;;;;;;5026210;28;20204;-84
2022/03/17 01:59:50;;;;;;;57.10;31.35;;;5.40;99.90;;;;;;5027184;28;20219;-85
2022/03/17 02:02:18;;;;;;;63.17;35.08;;;5.30;99.90;;;;;;5027548;28;20224;-83
2022/03/17 02:04:47;;;;;;;63.83;36.33;;;5.30;99.90;;;;;;5027127;28;20208;-84
2022/03/17 02:07:14;;;;;;;55.58;34.00;;;5.60;99.90;;;;;;5026759;28;20208;-85
2022/03/17 02:09:43;;;;;;;60.50;36.28;;;5.30;99.90;;;;;;5026442;28;20204;-84
2022/03/17 02:14:58;;;;;;;62.92;34.63;;;5.40;99.90;;;;;;5026852;28;20212;-84
2022/03/17 02:17:30;;;;;;;57.13;35.85;;;5.40;99.90;;;;;;5027260;28;20296;-84
2022/03/17 02:19:58;;;;;;;52.42;32.25;;;5.20;99.90;;;;;;5027249;28;20531;-84
2022/03/17 02:22:26;;;;;;;56.80;35.28;;;5.30;99.90;;;;;;5026884;28;20261;-85
2022/03/17 02:27:42;;;;;;;67.20;36.65;;;5.50;99.90;;;;;;5031058;28;20654;-84
2022/03/17 02:30:10;;;;;;;66.63;35.67;;;5.30;99.90;;;;;;5030716;28;20240;-83
2022/03/17 02:32:38;;;;;;;61.92;36.90;;;5.30;99.90;;;;;;5030132;28;20246;-84
2022/03/17 02:35:07;;;;;;;61.20;35.25;;;5.30;99.90;;;;;;5029731;28;20204;-83
2022/03/17 02:37:34;;;;;;;62.03;34.13;;;5.30;99.90;;;;;;5030144;28;20212;-84
2022/03/17 02:40:05;;;;;;;62.42;34.97;;;4.70;99.90;;;;;;5030332;28;20227;-84
2022/03/17 02:42:31;;;;;;;62.10;33.38;;;5.30;99.90;;;;;;5030588;28;20324;-84
2022/03/17 02:44:59;;;;;;;59.75;35.55;;;5.00;99.90;;;;;;5030792;28;20208;-84
2022/03/17 02:47:26;;;;;;;58.60;36.05;;;5.40;99.90;;;;;;5029829;28;20267;-84
2022/03/17 02:49:55;;;;;;;56.67;34.97;;;5.20;99.90;;;;;;5030180;28;20238;-83
2022/03/17 02:52:21;;;;;;;57.15;35.47;;;5.50;99.90;;;;;;5030590;28;20221;-83
2022/03/17 02:54:48;;;;;;;61.25;35.45;;;5.30;99.90;;;;;;5032571;28;20223;-82
2022/03/17 02:57:16;;;;;;;58.67;34.10;;;5.20;99.90;;;;;;5032634;28;20263;-84
2022/03/17 02:59:43;;;;;;;63.72;36.47;;;5.20;99.90;;;;;;5034296;28;20204;-83
2022/03/17 03:02:09;;;;;;;60.22;35.92;;;5.10;99.90;;;;;;5040030;28;20222;-83
2022/03/17 03:04:36;;;;;;;63.30;37.22;;;5.20;99.90;;;;;;5039965;28;20193;-83
2022/03/17 03:07:04;;;;;;;54.85;35.70;;;5.20;99.90;;;;;;5039826;28;20219;-85
2022/03/17 03:09:31;;;;;;;66.75;35.38;;;5.10;99.90;;;;;;5040565;28;20208;-83
2022/03/17 03:11:58;;;;;;;65.40;34.72;;;5.10;99.90;;;;;;5040413;28;20235;-84
2022/03/17 03:14:26;;;;;;;72.20;39.60;;;5.00;99.90;;;;;;5038664;28;20189;-83
2022/03/17 03:16:53;;;;;;;62.05;38.85;;;5.00;99.90;;;;;;5030685;28;20204;-82
2022/03/17 03:19:20;;;;;;;63.28;35.55;;;5.00;99.90;;;;;;5029803;28;20200;-84
2022/03/17 03:21:46;;;;;;;63.17;37.10;;;4.80;99.90;;;;;;5029531;28;20197;-84
2022/03/17 03:24:14;;;;;;;64.28;36.33;;;4.80;99.90;;;;;;5030046;28;20212;-83
2022/03/17 03:26:42;;;;;;;65.80;39.00;;;5.00;99.90;;;;;;5030095;28;20239;-84
2022/03/17 03:29:11;;;;;;;64.97;37.47;;;5.00;99.90;;;;;;5029760;28;20224;-83
2022/03/17 03:31:39;;;;;;;63.80;37.15;;;5.00;99.90;;;;;;5029761;28;20235;-83
2022/03/17 03:34:06;;;;;;;63.40;38.17;;;5.00;99.90;;;;;;5028279;28;20212;-83
2022/03/17 03:39:17;;;;;;;66.60;36.60;;;4.60;99.90;;;;;;5025396;28;20659;-82
2022/03/17 03:41:44;;;;;;;63.65;38.03;;;5.00;99.90;;;;;;5032655;28;20227;-82
2022/03/17 03:44:14;;;;;;;59.08;38.42;;;5.00;99.90;;;;;;5037732;28;20200;-82
2022/03/17 03:46:42;;;;;;;63.97;37.30;;;5.00;99.90;;;;;;5034742;28;20208;-81
2022/03/17 03:49:09;;;;;;;61.50;37.55;;;5.00;99.90;;;;;;5035477;28;20231;-82
2022/03/17 03:51:38;;;;;;;68.38;40.47;;;5.00;99.90;;;;;;5035012;28;20205;-82
2022/03/17 03:54:15;;;;;;;64.00;37.97;;;4.90;99.90;;;;;;5035551;28;20224;-82
2022/03/17 03:56:43;;;;;;;66.15;39.88;;;5.60;99.90;;;;;;5035020;28;20193;-81
2022/03/17 03:59:11;;;;;;;63.83;39.65;;;5.10;99.90;;;;;;5034994;28;20224;-82
2022/03/17 04:01:38;;;;;;;67.47;40.80;;;5.20;99.90;;;;;;5034828;28;20239;-82
2022/03/17 04:04:06;;;;;;;67.13;42.20;;;5.00;99.90;;;;;;5039498;28;20219;-83
2022/03/17 04:06:34;;;;;;;66.85;40.40;;;4.90;99.90;;;;;;5039639;28;20180;-82
2022/03/17 04:09:01;;;;;;;68.25;41.30;;;5.10;99.90;;;;;;5039325;28;20216;-82
2022/03/17 04:11:28;;;;;;;69.88;41.47;;;5.20;99.90;;;;;;5038987;28;20200;-83
2022/03/17 04:13:54;;;;;;;65.10;39.53;;;5.00;99.90;;;;;;5039139;28;20228;-83
2022/03/17 04:16:21;;;;;;;62.63;39.92;;;5.10;99.90;;;;;;5037954;28;20611;-83
2022/03/17 04:18:48;;;;;;;72.47;40.95;;;5.10;99.90;;;;;;5030454;28;20268;-84
2022/03/17 04:21:17;;;;;;;67.75;40.78;;;5.10;99.90;;;;;;5029765;28;20206;-84
2022/03/17 04:23:44;;;;;;;72.45;41.15;;;5.10;99.90;;;;;;5030689;28;20259;-84
2022/03/17 04:26:10;;;;;;;74.57;39.72;;;5.10;99.90;;;;;;5031944;28;20211;-83
2022/03/17 04:28:37;;;;;;;59.88;38.47;;;4.90;99.90;;;;;;5036965;28;20280;-83
2022/03/17 04:31:04;;;;;;;67.45;41.40;;;5.20;99.90;;;;;;5037456;28;20207;-83
2022/03/17 04:33:32;;;;;;;66.03;41.00;;;6.50;99.90;;;;;;5037777;28;20224;-83
2022/03/17 04:36:00;;;;;;;68.95;40.67;;;4.90;99.90;;;;;;5037597;28;20268;-83
2022/03/17 04:38:29;;;;;;;65.75;41.38;;;5.10;99.90;;;;;;5037520;28;20197;-82
2022/03/17 04:40:56;;;;;;;71.28;41.80;;;;;;;;;;5038079;28;20208;-84
2022/03/17 04:43:22;;;;;;;64.20;38.58;;;5.10;99.90;;;;;;5035903;28;20262;-83
2022/03/17 04:45:49;;;;;;;75.38;42.78;;;;;;;;;;5033808;28;20212;-84
2022/03/17 04:48:16;;;;;;;68.13;40.25;;;5.00;99.90;;;;;;5035323;28;20208;-83
2022/03/17 04:50:43;;;;;;;70.20;41.00;;;4.90;99.90;;;;;;5033591;28;20200;-84
2022/03/17 04:53:29;;;;;;;68.97;40.75;;;5.00;99.90;;;;;;5033070;28;20231;-83
2022/03/17 04:56:00;;;;;;;69.55;40.78;;;5.00;99.90;;;;;;5034469;28;20200;-84
2022/03/17 04:58:31;;;;;;;73.82;40.58;;;;;;;;;;5034574;28;20256;-82
2022/03/17 05:00:58;;;;;;;71.45;41.55;;;5.00;99.90;;;;;;5029818;28;20196;-82
2022/03/17 05:03:26;;;;;;;65.78;41.78;;;4.90;99.90;;;;;;5027440;28;20259;-82
2022/03/17 05:05:53;;;;;;;64.72;39.00;;;4.60;99.90;;;;;;5027811;28;20235;-83
2022/03/17 05:08:20;;;;;;;65.18;38.67;;;4.60;99.90;;;;;;5027682;28;20228;-83
2022/03/17 05:10:47;;;;;;;67.30;39.08;;;4.80;99.90;;;;;;5028469;28;20258;-83
2022/03/17 05:13:17;;;;;;;72.10;41.30;;;4.90;99.90;;;;;;5027811;28;20282;-84
2022/03/17 05:15:44;;;;;;;64.60;40.97;;;4.80;99.90;;;;;;5028768;28;20203;-83
2022/03/17 05:18:11;;;;;;;72.00;42.85;;;4.80;99.90;;;;;;5028234;28;20255;-84
2022/03/17 05:20:40;;;;;;;80.88;44.53;;;4.80;99.90;;;;;;5027996;28;20299;-84
2022/03/17 05:23:10;;;;;;;72.40;42.22;;;4.80;99.90;;;;;;5028368;28;20220;-83
2022/03/17 05:25:38;;;;;;;72.13;41.15;;;4.60;99.90;;;;;;5028566;28;20283;-85
2022/03/17 05:28:05;;;;;;;80.32;45.72;;;4.80;99.90;;;;;;5028513;28;20289;-84
2022/03/17 05:30:34;;;;;;;74.30;44.72;;;4.80;99.90;;;;;;5029649;28;20218;-85
2022/03/17 05:33:10;;;;;;;80.88;45.03;;;4.80;99.90;;;;;;5041109;22;20266;-79
2022/03/17 05:35:45;;;;;;;71.38;42.53;;;;;;;;;;5015315;28;20551;-79
2022/03/17 05:38:34;;;;;;;80.93;42.67;;;4.70;99.90;;;;;;5015488;28;20184;-79
2022/03/17 05:41:05;;;;;;;74.43;44.72;;;5.60;99.90;;;;;;5010765;28;20208;-78
2022/03/17 05:43:38;;;;;;;75.65;45.85;;;4.80;99.90;;;;;;5015459;28;20715;-79
2022/03/17 05:46:16;;;;;;;73.05;43.95;;;4.80;99.90;;;;;;5016620;28;20231;-78
2022/03/17 05:48:55;;;;;;;74.50;43.33;;;5.70;99.90;;;;;;5021865;28;20255;-78
2022/03/17 05:51:49;;;;;;;73.05;43.53;;;4.50;99.90;;;;;;5016055;28;20243;-79
2022/03/17 05:54:56;;;;;;;75.03;45.38;;;4.80;99.90;;;;;;5018200;28;20314;-81
2022/03/17 06:00:54;;;;;;;75.93;45.17;;;4.90;99.90;;;;;;5019245;28;20192;-79
2022/03/17 06:06:32;;;;;;;76.70;44.20;;;4.90;99.90;;;;;;4969708;28;20242;-80
2022/03/17 06:11:54;;;;;;;83.88;48.70;;;6.90;99.90;;;;;;4999622;28;20227;-78
2022/03/17 06:14:27;;;;;;;84.53;49.67;;;7.90;99.90;;;;;;5020070;28;20228;-81
2022/03/17 06:17:09;;;;;;;80.70;47.97;;;5.10;99.90;;;;;;5019400;28;20188;-79
2022/03/17 06:19:48;;;;;;;82.80;49.38;;;5.10;99.90;;;;;;5023431;28;20242;-79
2022/03/17 06:22:23;;;;;;;72.32;47.15;;;5.20;99.90;;;;;;5019681;28;20620;-80
2022/03/17 06:24:56;;;;;;;89.75;49.50;;;5.10;99.90;;;;;;5019755;28;20184;-79
2022/03/17 06:27:28;;;;;;;81.60;47.28;;;5.20;99.90;;;;;;5021146;28;20208;-80
2022/03/17 06:29:55;;;;;;;81.32;47.97;;;;;;;;;;5022062;28;20223;-79
2022/03/17 06:32:26;;;;;;;83.00;49.28;;;5.40;99.90;;;;;;5022504;28;20903;-78
2022/03/17 06:35:00;;;;;;;79.68;46.50;;;5.30;99.90;;;;;;5024164;28;20184;-78
2022/03/17 06:37:31;;;;;;;80.38;49.78;;;5.30;99.90;;;;;;5025830;28;20219;-79
2022/03/17 06:39:58;;;;;;;89.75;49.42;;;5.90;99.90;;;;;;5021756;28;20189;-78
2022/03/17 06:42:25;;;;;;;84.18;50.70;;;;;;;;;;5019610;28;20671;-78
2022/03/17 06:44:57;;;;;;;76.22;47.13;;;5.20;99.90;;;;;;5019825;28;20205;-79
2022/03/17 06:47:24;;;;;;;84.68;48.80;;;;;;;;;;5020075;28;20204;-80
2022/03/17 06:49:56;;;;;;;90.63;51.72;;;5.40;99.90;;;;;;5019127;28;20280;-81
2022/03/17 06:52:41;;;;;;;95.30;51.53;;;5.50;99.90;;;;;;5019529;28;20232;-79
2022/03/17 06:55:18;;;;;;;82.07;46.25;;;5.70;99.90;;;;;;5017991;28;20199;-79
2022/03/17 06:57:50;;;;;;;89.70;49.60;;;5.70;99.90;;;;;;5019375;28;20288;-80
2022/03/17 07:00:19;;;;;;;90.57;48.85;;;5.50;99.90;;;;;;5018339;28;20180;-79
2022/03/17 07:02:45;;;;;;;81.10;49.97;;;5.50;99.90;;;;;;5021040;28;20221;-78
2022/03/17 07:05:12;;;;;;;80.30;48.83;;;5.60;99.90;;;;;;5021262;28;20215;-78
2022/03/17 07:07:40;;;;;;;90.47;50.72;;;5.50;99.90;;;;;;5023658;28;20208;-78
2022/03/17 07:10:08;;;;;;;80.47;49.90;;;5.60;99.90;;;;;;5021598;28;20223;-79
2022/03/17 07:12:39;;;;;;;85.15;51.08;;;5.60;99.90;;;;;;5019050;28;20264;-78
2022/03/17 07:15:06;;;;;;;83.18;49.05;;;5.80;99.90;;;;;;5017860;28;20208;-79
2022/03/17 07:17:39;;;;;;;69.88;48.45;;;5.80;90.70;;;;;;5017629;28;20250;-79
2022/03/17 07:20:07;;;;;;;82.22;49.83;;;6.00;99.90;;;;;;5018061;28;20655;-78
2022/03/17 07:22:33;;;;;;;86.45;50.05;;;5.80;91.60;;;;;;5018915;28;20227;-79
2022/03/17 07:25:01;;;;;;;79.53;49.88;;;5.80;88.40;;;;;;5025785;28;20270;-78
2022/03/17 07:27:30;;;;;;;88.00;51.45;;;5.80;55.10;;;;;;5025119;28;20201;-78
2022/03/17 07:29:57;;;;;;;76.22;45.20;;;5.70;95.40;;;;;;5020474;28;20264;-81
2022/03/17 07:32:24;;;;;;;87.38;49.83;;;5.70;39.50;;;;;;5019969;28;20224;-80
2022/03/17 07:34:51;;;;;;;87.50;51.10;;;5.80;33.00;;;;;;5024892;28;20211;-79
2022/03/17 07:37:18;;;;;;;86.22;51.20;;;5.90;12.20;;;;;;5020794;28;20288;-80
2022/03/17 07:39:47;;;;;;;81.63;48.58;;;5.90;1.00;;;;;;5022880;28;20624;-79
2022/03/17 07:42:16;;;;;;;81.00;48.40;;;6.20;19.40;;;;;;5025161;28;20200;-78
2022/03/17 07:44:42;;;;;;;85.35;51.58;;;5.90;1.00;;;;;;5021610;28;20239;-79
2022/03/17 07:47:09;;;;;;;85.35;51.25;;;6.00;1.00;;;;;;5020294;28;20232;-78
2022/03/17 07:49:36;;;;;;;88.03;52.92;;;6.00;1.00;;;;;;5020758;28;20230;-78
2022/03/17 07:52:03;;;;;;;85.93;49.60;;;6.30;1.00;;;;;;5024189;28;20185;-77
2022/03/17 07:54:29;;;;;;;82.75;51.40;;;6.20;1.00;;;;;;5020914;28;20212;-80
2022/03/17 07:56:56;;;;;;;75.85;47.80;;;6.30;1.00;;;;;;5022242;28;20228;-80
2022/03/17 07:59:25;;;;;;;82.10;50.88;;;6.30;1.00;;;;;;5022265;28;20211;-77
2022/03/17 08:01:52;;;;;;;86.97;50.78;;;6.30;1.00;;;;;;5020714;28;20200;-78
2022/03/17 08:04:18;;;;;;;87.00;52.28;;;6.40;1.00;;;;;;5018159;28;20300;-80
2022/03/17 08:06:45;;;;;;;84.25;47.75;;;;;;;;;;5017928;28;20236;-81
2022/03/17 08:09:12;;;;;;;88.13;52.92;;;6.90;1.00;;;;;;5017530;28;20730;-80
2022/03/17 08:11:39;;;;;;;82.70;51.83;;;6.50;1.00;;;;;;5017188;28;20204;-78
2022/03/17 08:14:05;;;;;;;82.20;53.88;;;6.50;1.00;;;;;;5016980;28;20286;-78
2022/03/17 08:16:34;;;;;;;73.57;48.83;;;6.60;1.00;;;;;;5017045;28;20204;-79
2022/03/17 08:19:00;;;;;;;77.53;48.97;;;6.60;1.00;;;;;;5016561;28;20215;-79
2022/03/17 08:21:27;;;;;;;85.28;50.85;;;6.50;99.90;;;;;;5016287;28;20652;-79
2022/03/17 08:23:54;;;;;;;75.57;50.45;;;6.60;99.90;;;;;;5022044;28;20228;-79
2022/03/17 08:26:20;;;;;;;82.97;48.72;;;6.80;99.90;;;;;;5019552;28;20231;-79
2022/03/17 08:28:47;;;;;;;80.85;52.58;;;6.70;99.90;;;;;;5021275;28;20204;-79
2022/03/17 08:31:14;;;;;;;80.85;49.92;;;6.80;99.90;;;;;;5021866;28;20645;-79
2022/03/17 08:33:42;;;;;;;85.13;50.55;;;6.80;99.90;;;;;;5019615;28;20232;-77
2022/03/17 08:36:08;;;;;;;85.90;53.00;;;6.90;99.90;;;;;;5020768;28;20204;-77
2022/03/17 08:38:35;;;;;;;82.57;51.25;;;;;;;;;;5020982;28;20208;-79
2022/03/17 08:41:02;;;;;;;76.63;49.28;;;7.00;1.00;;;;;;5020844;28;20282;-78
2022/03/17 08:43:29;;;;;;;77.63;50.25;;;7.10;1.00;;;;;;5017207;28;20259;-78
2022/03/17 08:51:27;;;;;;;79.53;47.50;;;7.10;1.00;;;;;;5016451;28;20207;-77
2022/03/17 08:53:53;;;;;;;77.93;49.78;;;7.10;99.90;;;;;;5015450;28;20251;-78
2022/03/17 08:56:20;;;;;;;76.72;49.92;;;7.20;99.90;;;;;;5015873;28;20279;-78
2022/03/17 08:58:47;;;;;;;77.20;52.20;;;7.20;1.00;;;;;;5015900;28;20664;-79
2022/03/17 09:01:13;;;;;;;76.90;48.95;;;7.40;1.00;;;;;;5017656;28;20453;-79
2022/03/17 09:03:41;;;;;;;78.82;48.45;;;7.40;99.90;;;;;;5022377;28;20235;-79
2022/03/17 09:06:10;;;;;;;78.07;49.00;;;7.40;99.90;;;;;;5023785;28;20207;-79
2022/03/17 09:08:37;;;;;;;80.10;50.42;;;7.60;99.90;;;;;;5020901;28;20422;-79
2022/03/17 09:11:04;;;;;;;71.77;49.90;;;7.60;99.90;;;;;;5020108;28;20229;-79
2022/03/17 09:13:30;;;;;;;71.37;49.53;;;7.90;1.00;;;;;;5019794;28;20476;-79
2022/03/17 09:15:57;;;;;;;72.83;47.10;;;7.70;99.90;;;;;;5020918;28;20459;-78
2022/03/17 09:18:27;;;;;;;74.97;46.97;;;7.80;99.90;;;;;;5020943;28;20431;-78
2022/03/17 09:20:56;;;;;;;77.50;47.08;;;7.80;1.00;;;;;;5019897;28;20499;-78
2022/03/17 09:23:23;;;;;;;71.17;47.97;;;7.80;1.00;;;;;;5020330;28;20312;-78
2022/03/17 09:25:50;;;;;;;74.10;50.40;;;7.90;99.90;;;;;;5019383;28;20483;-80
2022/03/17 09:28:16;;;;;;;70.22;45.55;;;8.00;1.00;;;;;;5020757;28;20423;-78
2022/03/17 09:30:43;;;;;;;68.80;45.63;;;8.10;99.90;;;;;;5018404;28;20233;-79
2022/03/17 09:33:09;;;;;;;67.17;46.20;;;8.30;99.90;;;;;;5023655;28;20478;-79
2022/03/17 09:35:36;;;;;;;69.90;45.03;;;8.30;1.00;;;;;;5023616;28;20456;-80
2022/03/17 09:38:05;;;;;;;69.30;47.40;;;8.40;1.00;;;;;;5024071;28;20457;-80
2022/03/17 09:40:32;;;;;;;79.00;49.73;;;8.40;1.00;;;;;;5024404;28;20448;-79
2022/03/17 09:45:45;;;;;;;78.60;47.47;;;8.50;1.00;;;;;;5023273;28;20399;-79
2022/03/17 09:48:13;;;;;;;74.40;48.87;;;8.70;1.00;;;;;;5023971;28;20911;-79
2022/03/17 09:50:41;;;;;;;75.20;46.77;;;8.70;1.00;;;;;;5023431;28;20461;-79
2022/03/17 09:53:09;;;;;;;68.43;47.20;;;9.00;1.00;;;;;;5022725;28;20870;-80
2022/03/17 09:55:36;;;;;;;68.90;47.87;;;8.70;99.90;;;;;;5024280;28;20865;-79
2022/03/17 09:58:06;;;;;;;72.17;47.03;;;8.70;99.90;;;;;;5022564;28;20487;-80
2022/03/17 10:00:49;;;;;;;71.80;48.63;;;9.00;1.00;;;;;;5021868;28;20422;-80
2022/03/17 10:03:16;;;;;;;69.00;46.57;;;8.80;99.90;;;;;;5022744;28;20443;-79
2022/03/17 10:05:44;;;;;;;63.73;45.83;;;8.80;99.90;;;;;;5022646;28;20802;-79
2022/03/17 10:08:13;;;;;;;76.33;47.33;;;8.10;1.00;;;;;;5024750;28;20791;-78
2022/03/17 10:10:40;;;;;;;71.60;43.77;;;8.80;99.90;;;;;;5025356;28;20464;-78
2022/03/17 10:13:10;;;;;;;71.53;46.70;;;9.00;1.00;;;;;;5025142;28;20477;-78
2022/03/17 10:15:37;;;;;;;73.30;46.90;;;9.00;99.90;;;;;;5025543;28;20454;-78
2022/03/17 10:18:19;;;;;;;71.57;48.37;;;9.00;99.90;;;;;;5023736;28;20429;-79
2022/03/17 10:20:46;;;;;;;72.87;46.77;;;9.10;99.90;;;;;;5023133;28;20399;-79
2022/03/17 10:23:23;;;;;;;71.40;47.23;;;9.20;99.90;;;;;;5021892;28;20481;-80
2022/03/17 10:25:57;;;;;;;74.63;45.20;;;9.20;99.90;;;;;;5022585;28;20437;-80
2022/03/17 10:28:26;;;;;;;80.80;47.13;;;9.20;99.90;;;;;;5024068;28;20907;-80
2022/03/17 10:31:03;;;;;;;67.53;46.13;;;9.40;99.90;;;;;;5025756;28;20511;-79
2022/03/17 10:33:30;;;;;;;66.23;45.70;;;9.50;99.90;;;;;;5023637;28;20456;-78
2022/03/17 10:36:14;;;;;;;69.03;44.20;;;9.40;99.90;;;;;;5026282;28;20474;-78
2022/03/17 10:38:44;;;;;;;62.80;41.77;;;9.80;99.90;;;;;;5026125;28;20470;-78
2022/03/17 10:41:12;;;;;;;67.40;43.40;;;9.50;99.90;;;;;;5025381;28;20438;-78
2022/03/17 10:43:40;;;;;;;72.40;46.67;;;9.60;99.90;;;;;;5020687;28;20446;-79
2022/03/17 10:46:09;;;;;;;63.00;44.47;;;9.60;99.90;;;;;;5018635;28;20429;-79
2022/03/17 10:48:52;;;;;;;70.20;46.23;;;9.60;99.90;;;;;;5017820;28;20425;-79
2022/03/17 10:51:30;;;;;;;63.93;43.30;;;9.60;95.90;;;;;;5018954;28;20442;-79
2022/03/17 10:54:04;;;;;;;61.83;44.03;;;9.70;52.60;;;;;;5017544;28;20495;-78
2022/03/17 10:56:31;;;;;;;63.47;45.50;;;9.90;63.90;;;;;;5018047;28;20448;-79
2022/03/17 10:59:01;;;;;;;69.30;44.17;;;10.00;54.40;;;;;;5018299;28;20536;-79
2022/03/17 11:01:39;;;;;;;66.60;43.63;;;10.30;25.30;;;;;;5019001;28;20504;-79
2022/03/17 11:04:07;;;;;;;66.57;46.30;;;10.00;99.90;;;;;;5018757;28;20506;-81
2022/03/17 11:06:34;;;;;;;64.63;44.33;;;10.00;1.00;;;;;;5022245;28;20465;-80
2022/03/17 11:09:02;;;;;;;64.80;45.97;;;10.10;1.40;;;;;;5024558;28;20454;-79
2022/03/17 11:11:29;;;;;;;63.00;43.87;;;10.10;1.00;;;;;;5025302;28;20486;-79
2022/03/17 11:13:57;;;;;;;59.40;42.90;;;10.20;1.00;;;;;;5020301;28;20850;-80
2022/03/17 11:16:30;;;;;;;65.57;43.70;;;10.30;1.00;;;;;;5017714;28;20918;-80
2022/03/17 11:18:58;;;;;;;65.47;43.63;;;10.40;1.00;;;;;;5018152;28;20436;-80
2022/03/17 11:21:29;;;;;;;68.53;42.37;;;10.40;1.00;;;;;;5018635;28;20482;-80
2022/03/17 11:23:59;;;;;;;61.53;41.70;;;10.50;1.00;;;;;;5018440;28;20564;-80
2022/03/17 11:26:34;;;;;;;59.20;42.90;;;10.50;1.00;;;;;;5018844;28;20438;-80
2022/03/17 11:29:04;;;;;;;57.90;41.60;;;10.50;1.00;;;;;;5018209;28;20531;-78
2022/03/17 11:31:51;;;;;;;57.27;42.33;;;10.50;1.00;;;;;;5017618;28;20486;-79
2022/03/17 11:34:39;;;;;;;61.43;42.33;;;10.50;1.00;;;;;;5017611;28;20477;-80
2022/03/17 11:37:27;;;;;;;60.40;40.70;;;10.50;1.00;;;;;;5022159;28;20454;-78
2022/03/17 11:39:56;;;;;;;58.93;43.00;;;10.50;1.00;;;;;;5025054;28;20451;-78
2022/03/17 11:42:38;;;;;;;56.00;40.17;;;10.70;1.00;;;;;;5023415;28;20495;-79
2022/03/17 11:45:28;;;;;;;62.90;40.90;;;10.70;1.00;;;;;;5022938;28;20858;-79
2022/03/17 11:47:57;;;;;;;57.07;40.57;;;10.60;1.00;;;;;;5018548;28;20444;-79
2022/03/17 11:50:25;;;;;;;51.00;38.57;;;10.60;1.00;;;;;;5018628;28;20546;-80
2022/03/17 11:52:53;;;;;;;54.90;38.93;;;10.80;1.00;;;;;;5019284;28;20471;-80
2022/03/17 11:55:35;;;;;;;56.17;40.00;;;10.70;1.00;;;;;;5018406;28;21040;-79
2022/03/17 11:58:26;;;;;;;54.37;38.20;;;10.80;1.00;;;;;;5019834;28;20451;-80
2022/03/17 12:00:54;;;;;;;55.40;38.13;;;10.90;1.00;;;;;;5017999;28;20519;-79
2022/03/17 12:03:28;;;;;;;53.90;39.90;;;11.00;1.00;;;;;;5018363;28;20494;-79
2022/03/17 12:06:15;;;;;;;52.00;36.73;;;11.00;1.00;;;;;;5017976;28;20450;-79
2022/03/17 12:08:43;;;;;;;47.60;36.90;;;11.10;1.00;;;;;;5017425;28;20431;-81
2022/03/17 12:11:13;;;;;;;49.57;34.93;;;11.00;1.00;;;;;;5017370;28;20498;-79
2022/03/17 12:13:41;;;;;;;46.47;33.87;;;11.10;1.00;;;;;;5018119;28;20489;-80
2022/03/17 12:16:09;;;;;;;48.33;33.83;;;11.20;99.90;;;;;;5021133;28;20502;-77
2022/03/17 12:19:01;;;;;;;46.10;32.87;;;11.20;1.00;;;;;;5026231;28;20426;-79
2022/03/17 12:22:06;;;;;;;42.97;33.13;;;11.20;1.00;;;;;;5027333;28;20422;-79
2022/03/17 12:24:33;;;;;;;51.20;34.57;;;11.30;1.00;;;;;;5023873;28;20451;-79
2022/03/17 12:27:04;;;;;;;48.47;34.23;;;11.40;1.00;;;;;;5019961;28;20452;-79
2022/03/17 12:29:32;;;;;;;47.07;32.83;;;11.40;1.00;;;;;;5020524;28;20436;-79
2022/03/17 12:32:04;;;;;;;48.50;33.73;;;11.40;1.00;;;;;;5018443;28;20901;-80
2022/03/17 12:34:32;;;;;;;49.43;34.47;;;11.50;1.00;;;;;;5017098;28;20456;-80
2022/03/17 12:37:01;;;;;;;47.30;35.00;;;11.60;1.00;;;;;;5016579;28;20490;-80
2022/03/17 12:39:29;;;;;;;47.43;33.60;;;11.50;1.00;;;;;;5017291;28;20506;-77
2022/03/17 12:41:56;;;;;;;41.87;33.07;;;11.50;1.00;;;;;;5021518;28;20447;-79
2022/03/17 12:44:23;;;;;;;46.20;33.80;;;11.60;1.00;;;;;;5022070;28;20472;-77
2022/03/17 12:46:51;;;;;;;43.80;34.00;;;11.60;1.00;;;;;;5020505;28;20452;-80
2022/03/17 12:49:19;;;;;;;42.50;31.93;;;11.50;1.00;;;;;;5018995;28;20447;-80
2022/03/17 12:51:45;;;;;;;45.37;32.13;;;11.50;1.00;;;;;;5016884;28;21008;-79
2022/03/17 12:54:13;;;;;;;48.07;35.90;;;11.40;1.00;;;;;;5020819;28;20503;-79
2022/03/17 12:56:51;;;;;;;47.67;35.03;;;11.40;1.00;;;;;;5024631;28;20483;-79
2022/03/17 12:59:18;;;;;;;45.67;34.77;;;11.60;99.90;;;;;;5027755;28;20483;-79
2022/03/17 13:01:47;;;;;;;44.23;34.53;;;11.50;1.00;;;;;;5021572;28;20448;-80
2022/03/17 13:04:15;;;;;;;48.63;34.00;;;11.60;1.00;;;;;;5020725;28;20446;-80
2022/03/17 13:06:56;;;;;;;49.97;34.77;;;11.50;1.00;;;;;;5018170;28;20454;-80
2022/03/17 13:09:29;;;;;;;47.60;37.23;;;11.50;1.00;;;;;;5017505;28;20435;-79
2022/03/17 13:14:47;;;;;;;47.60;33.73;;;11.50;1.00;;;;;;5017978;28;20427;-79
2022/03/17 13:17:14;;;;;;;49.47;36.17;;;11.40;1.00;;;;;;5020909;28;20457;-78
2022/03/17 13:19:46;;;;;;;48.93;36.13;;;11.40;1.00;;;;;;5022517;28;20441;-79
2022/03/17 13:22:13;;;;;;;48.67;35.90;;;11.70;99.90;;;;;;5022192;28;20451;-78
2022/03/17 13:24:40;;;;;;;48.03;34.37;;;11.60;1.00;;;;;;5021456;28;20451;-79